Time;durP1;ratioP1;P1;durP2;ratioP2;P2;SDS_P1;SDS_P2;PMS_P1;PMS_P2;Temp;Humidity;BMP_temperature;BMP_pressure;BME280_temperature;BME280_humidity;BME280_pressure;Samples;Min_cycle;Max_cycle;Signal;HPM_P1;HPM_P2
2022/01/12 00:01:37;;;;;;;104.10;31.60;;;3.70;99.90;;;;;;5124558;27;20467;-78
2022/01/12 00:04:03;;;;;;;113.57;36.05;;;4.50;99.90;;;;;;5102374;28;20069;-77
2022/01/12 00:06:28;;;;;;;131.40;35.38;;;3.70;99.90;;;;;;5101384;28;20034;-78
2022/01/12 00:08:55;;;;;;;109.13;32.73;;;3.80;99.90;;;;;;5124697;28;20089;-77
2022/01/12 00:11:21;;;;;;;154.05;38.83;;;3.60;99.90;;;;;;5117168;28;20475;-78
2022/01/12 00:13:51;;;;;;;133.57;34.20;;;4.80;99.90;;;;;;5089219;28;20112;-78
2022/01/12 00:16:18;;;;;;;136.15;35.28;;;3.70;99.90;;;;;;5121521;28;20035;-77
2022/01/12 00:18:45;;;;;;;167.98;38.33;;;3.70;99.90;;;;;;5101259;28;20035;-78
2022/01/12 00:21:12;;;;;;;157.32;39.05;;;4.70;99.90;;;;;;5100097;28;20035;-78
2022/01/12 00:23:38;;;;;;;;;;;3.70;99.90;;;;;;5119842;28;20031;-78
2022/01/12 00:26:23;;;;;;;171.25;38.30;;;3.80;99.90;;;;;;5103067;28;19916;-78
2022/01/12 00:33:09;;;;;;;145.35;34.63;;;3.70;99.90;;;;;;5100780;28;20418;-77
2022/01/12 00:34:31;;;;;;;177.32;37.78;;;4.00;99.90;;;;;;5116080;28;20040;-77
2022/01/12 00:36:57;;;;;;;187.57;37.40;;;3.80;99.90;;;;;;5099137;28;20040;-78
2022/01/12 00:39:23;;;;;;;134.23;34.90;;;3.80;99.90;;;;;;5117481;28;20044;-77
2022/01/12 00:41:50;;;;;;;223.18;41.58;;;3.80;99.90;;;;;;5127437;28;20043;-78
2022/01/12 00:44:23;;;;;;;153.60;35.95;;;3.80;99.90;;;;;;5097391;28;20047;-78
2022/01/12 00:46:51;;;;;;;182.32;40.00;;;3.80;99.90;;;;;;5111311;28;20416;-78
2022/01/12 00:49:17;;;;;;;167.50;37.13;;;3.80;99.90;;;;;;5115493;28;20415;-78
2022/01/12 00:51:43;;;;;;;181.93;39.20;;;3.70;99.90;;;;;;5122458;28;20032;-77
2022/01/12 00:54:09;;;;;;;158.63;35.78;;;3.70;99.90;;;;;;5107491;28;20081;-77
2022/01/12 00:56:35;;;;;;;168.27;36.60;;;3.80;99.90;;;;;;5124864;28;20035;-78
2022/01/12 00:59:02;;;;;;;159.02;35.90;;;4.70;99.90;;;;;;5124096;28;20394;-78
2022/01/12 01:01:28;;;;;;;202.82;39.45;;;3.80;99.90;;;;;;5114149;28;20073;-78
2022/01/12 01:03:54;;;;;;;156.35;37.03;;;3.80;99.90;;;;;;5103414;28;20079;-78
2022/01/12 01:06:21;;;;;;;257.45;42.22;;;3.80;99.90;;;;;;5121083;28;20048;-77
2022/01/12 01:08:51;;;;;;;178.98;37.00;;;3.80;99.90;;;;;;5114219;28;20044;-78
2022/01/12 01:11:21;;;;;;;340.10;48.50;;;3.70;99.90;;;;;;5128236;27;20113;-78
2022/01/12 01:13:59;;;;;;;227.98;40.92;;;4.10;99.90;;;;;;5122918;27;20047;-78
2022/01/12 01:25:25;;;;;;;202.82;38.25;;;3.80;99.90;;;;;;5115177;27;20045;-78
2022/01/12 01:25:37;;;;;;;318.38;47.80;;;3.80;99.90;;;;;;5054278;28;20040;-78
2022/01/12 01:27:55;;;;;;;427.52;53.75;;;3.80;99.90;;;;;;5115689;27;20051;-78
2022/01/12 01:30:21;;;;;;;447.33;55.03;;;3.70;99.90;;;;;;5122460;27;20050;-77
2022/01/12 01:32:47;;;;;;;283.70;42.25;;;3.80;99.90;;;;;;5118579;27;20442;-77
2022/01/12 01:35:12;;;;;;;271.67;43.22;;;3.80;99.90;;;;;;5100529;27;20055;-78
2022/01/12 01:37:41;;;;;;;452.02;57.05;;;3.70;99.90;;;;;;5120438;27;20043;-78
2022/01/12 01:40:13;;;;;;;439.77;59.08;;;4.30;99.90;;;;;;5117226;27;20537;-78
2022/01/12 01:42:54;;;;;;;370.88;49.38;;;3.80;99.90;;;;;;5155490;27;20031;-77
2022/01/12 01:53:37;;;;;;;376.13;46.95;;;3.80;99.90;;;;;;5113990;27;20045;-76
2022/01/12 01:56:02;;;;;;;;;;;3.80;99.90;;;;;;5126912;27;20526;-76
2022/01/12 01:58:28;;;;;;;375.13;49.58;;;3.80;99.90;;;;;;5119741;27;19946;-75
2022/01/12 02:00:54;;;;;;;520.90;60.08;;;3.90;99.90;;;;;;5127064;27;20115;-76
2022/01/12 02:03:20;;;;;;;392.60;50.80;;;4.00;99.90;;;;;;5119006;27;20058;-76
2022/01/12 02:05:46;;;;;;;601.78;68.63;;;4.20;99.90;;;;;;5125591;27;20070;-76
2022/01/12 02:08:12;;;;;;;464.92;52.53;;;4.00;99.90;;;;;;5104322;28;20376;-76
2022/01/12 02:10:38;;;;;;;463.40;54.35;;;3.80;99.90;;;;;;5108869;27;20042;-76
2022/01/12 02:13:04;;;;;;;384.20;47.58;;;3.80;99.90;;;;;;5125798;27;20074;-76
2022/01/12 02:15:30;;;;;;;529.17;52.75;;;3.80;99.90;;;;;;5124897;27;20093;-76
2022/01/12 02:18:19;;;;;;;579.40;64.13;;;3.80;99.90;;;;;;5114414;27;20047;-75
2022/01/12 02:40:23;;;;;;;342.10;46.38;;;4.40;99.90;;;;;;5122308;27;20096;-77
2022/01/12 02:53:41;;;;;;;184.02;33.95;;;3.90;99.90;;;;;;5116260;27;20526;-76
2022/01/12 02:56:08;;;;;;;173.90;32.25;;;3.90;99.90;;;;;;5119116;27;20491;-76
2022/01/12 02:58:34;;;;;;;177.68;33.67;;;4.00;99.90;;;;;;5118615;27;20368;-76
2022/01/12 03:02:03;;;;;;;150.95;31.65;;;4.10;99.90;;;;;;5124062;27;20051;-76
2022/01/12 03:03:51;;;;;;;276.30;39.50;;;4.00;99.90;;;;;;5111185;27;20059;-76
2022/01/12 03:06:20;;;;;;;209.63;34.45;;;4.10;99.90;;;;;;5115467;27;20048;-76
2022/01/12 03:08:47;;;;;;;377.20;46.70;;;4.10;99.90;;;;;;5109654;27;20078;-76
2022/01/12 03:11:16;;;;;;;192.23;33.60;;;4.90;99.90;;;;;;5123160;27;20185;-77
2022/01/12 03:13:42;;;;;;;125.55;28.42;;;4.10;99.90;;;;;;5116562;27;20039;-76
2022/01/12 03:16:14;;;;;;;275.42;41.50;;;3.90;99.90;;;;;;5118798;27;20499;-76
2022/01/12 03:18:41;;;;;;;178.30;32.85;;;3.90;99.90;;;;;;5123669;27;20104;-76
2022/01/12 03:21:07;;;;;;;545.20;51.90;;;4.10;99.90;;;;;;5121515;27;20039;-76
2022/01/12 03:23:33;;;;;;;459.63;44.72;;;3.90;99.90;;;;;;5117567;27;20092;-76
2022/01/12 03:25:59;;;;;;;667.80;57.95;;;3.80;99.90;;;;;;5114569;27;20372;-76
2022/01/12 03:28:25;;;;;;;541.72;48.47;;;3.70;99.90;;;;;;5121517;27;20038;-76
2022/01/12 03:30:58;;;;;;;598.35;51.58;;;4.20;99.90;;;;;;5103799;27;20031;-76
2022/01/12 03:33:39;;;;;;;638.85;57.65;;;3.60;99.90;;;;;;5100504;27;20051;-76
2022/01/12 03:38:57;;;;;;;933.08;74.45;;;3.50;99.90;;;;;;5115186;27;20743;-76
2022/01/12 03:41:26;;;;;;;896.20;71.43;;;3.40;99.90;;;;;;5116335;27;20483;-76
2022/01/12 03:43:52;;;;;;;856.22;70.40;;;3.50;99.90;;;;;;5103152;27;20053;-76
2022/01/12 03:46:23;;;;;;;643.35;49.60;;;3.30;99.90;;;;;;5098055;28;20491;-76
2022/01/12 03:48:49;;;;;;;630.75;48.92;;;3.30;99.90;;;;;;5122280;27;20051;-76
2022/01/12 03:51:15;;;;;;;655.38;47.65;;;3.20;99.90;;;;;;5120150;27;20515;-76
2022/01/12 03:53:40;;;;;;;837.47;65.03;;;3.30;99.90;;;;;;5125377;27;20482;-76
2022/01/12 03:56:06;;;;;;;744.00;59.40;;;3.20;99.90;;;;;;5120130;27;20031;-76
2022/01/12 03:58:32;;;;;;;632.58;47.83;;;3.10;99.90;;;;;;5120429;27;20032;-76
2022/01/12 04:00:58;;;;;;;591.25;47.75;;;3.10;99.90;;;;;;5124545;27;20035;-77
2022/01/12 04:03:25;;;;;;;773.28;57.28;;;3.10;99.90;;;;;;5121865;27;20044;-77
2022/01/12 04:08:21;;;;;;;613.42;48.33;;;3.00;99.90;;;;;;5110700;28;20057;-77
2022/01/12 04:10:48;;;;;;;637.45;51.00;;;3.00;99.90;;;;;;5130148;28;20031;-77
2022/01/12 04:13:14;;;;;;;440.65;34.78;;;2.90;99.90;;;;;;5112521;28;20071;-77
2022/01/12 04:15:42;;;;;;;497.77;43.42;;;2.90;99.90;;;;;;5117367;28;20089;-77
2022/01/12 04:18:08;;;;;;;406.20;35.58;;;2.90;99.90;;;;;;5121807;28;20071;-77
2022/01/12 04:20:34;;;;;;;323.53;34.87;;;3.80;99.90;;;;;;5122506;28;20478;-77
2022/01/12 04:23:18;;;;;;;456.43;35.40;;;3.00;99.90;;;;;;5115050;28;20627;-77
2022/01/12 04:25:52;;;;;;;539.47;46.50;;;2.80;99.90;;;;;;5115197;28;20273;-77
2022/01/12 04:28:20;;;;;;;415.73;38.67;;;2.70;99.90;;;;;;5115447;28;20115;-77
2022/01/12 04:30:46;;;;;;;557.00;45.65;;;2.60;99.90;;;;;;5117817;28;20429;-76
2022/01/12 04:33:12;;;;;;;225.70;26.85;;;2.60;99.90;;;;;;5124103;28;20039;-76
2022/01/12 04:35:46;;;;;;;341.35;33.15;;;2.60;99.90;;;;;;5099315;28;20092;-76
2022/01/12 04:38:13;;;;;;;288.92;29.58;;;3.50;99.90;;;;;;5121872;28;20405;-76
2022/01/12 04:40:39;;;;;;;275.90;27.75;;;2.60;99.90;;;;;;5098172;28;20039;-76
2022/01/12 04:43:07;;;;;;;413.27;36.67;;;2.60;99.90;;;;;;5121264;28;20040;-76
2022/01/12 04:50:57;;;;;;;262.45;27.90;;;2.40;99.90;;;;;;5100340;27;20070;-76
2022/01/12 04:53:23;;;;;;;183.70;22.25;;;2.40;99.90;;;;;;5123233;27;20031;-76
2022/01/12 04:55:50;;;;;;;379.48;36.42;;;2.30;99.90;;;;;;5121096;27;20054;-76
2022/01/12 04:58:17;;;;;;;274.67;27.40;;;2.70;99.90;;;;;;5126618;27;20172;-76
2022/01/12 05:00:44;;;;;;;214.95;25.00;;;2.20;99.90;;;;;;5122982;27;20050;-76
2022/01/12 05:13:51;;;;;;;116.50;18.15;;;1.90;99.90;;;;;;5118114;27;20366;-77
2022/01/12 05:16:18;;;;;;;226.75;27.33;;;2.60;99.90;;;;;;5110412;27;20091;-77
2022/01/12 05:18:46;;;;;;;123.53;19.55;;;1.80;99.90;;;;;;5124195;27;20495;-77
2022/01/12 05:21:13;;;;;;;89.65;17.10;;;1.80;99.90;;;;;;5126787;27;20403;-77
2022/01/12 05:23:39;;;;;;;150.63;19.70;;;1.80;99.90;;;;;;5123344;27;20050;-76
2022/01/12 05:26:06;;;;;;;106.57;17.75;;;1.70;99.90;;;;;;5134682;27;20402;-77
2022/01/12 05:28:32;;;;;;;136.82;20.13;;;1.70;99.90;;;;;;5116974;27;20066;-77
2022/01/12 05:30:59;;;;;;;105.95;17.15;;;1.60;99.90;;;;;;5129243;27;20098;-76
2022/01/12 05:33:26;;;;;;;296.50;34.58;;;2.50;99.90;;;;;;5125742;27;20038;-76
2022/01/12 05:35:54;;;;;;;238.57;27.60;;;2.60;99.90;;;;;;5123002;27;20035;-76
2022/01/12 05:38:19;;;;;;;255.57;27.52;;;1.50;99.90;;;;;;5106985;27;20490;-76
2022/01/12 05:40:47;;;;;;;241.65;25.08;;;1.60;99.90;;;;;;5111933;27;20139;-76
2022/01/12 05:43:14;;;;;;;381.45;30.20;;;1.50;99.90;;;;;;5129936;27;20503;-75
2022/01/12 05:45:44;;;;;;;253.02;24.33;;;1.60;99.90;;;;;;5104789;27;20047;-75
2022/01/12 05:50:37;;;;;;;278.38;26.35;;;1.60;99.90;;;;;;5123273;27;20489;-77
2022/01/12 05:53:03;;;;;;;402.15;33.38;;;1.60;99.90;;;;;;5118834;27;20058;-77
2022/01/12 05:55:29;;;;;;;515.47;47.58;;;2.30;99.90;;;;;;5125894;27;20039;-78
2022/01/12 05:57:55;;;;;;;453.42;45.03;;;1.60;99.90;;;;;;5085770;27;20035;-77
2022/01/12 06:00:23;;;;;;;396.67;32.95;;;2.70;99.90;;;;;;5123210;27;20118;-77
2022/01/12 06:02:48;;;;;;;478.55;41.13;;;1.50;99.90;;;;;;5108657;27;20035;-77
2022/01/12 06:05:14;;;;;;;368.55;34.53;;;1.40;99.90;;;;;;5111362;27;20051;-77
2022/01/12 06:07:41;;;;;;;493.40;41.60;;;1.40;99.90;;;;;;5125890;27;20565;-77
2022/01/12 06:10:08;;;;;;;225.80;22.67;;;1.90;99.90;;;;;;5125658;27;20057;-77
2022/01/12 06:12:34;;;;;;;335.77;31.83;;;1.40;99.90;;;;;;5108493;27;20128;-77
2022/01/12 06:14:59;;;;;;;409.67;34.75;;;1.40;99.90;;;;;;5122214;27;20159;-77
2022/01/12 06:17:25;;;;;;;320.58;31.10;;;1.40;99.90;;;;;;5096569;27;20129;-77
2022/01/12 06:19:51;;;;;;;200.02;20.88;;;1.40;99.90;;;;;;5125327;27;20039;-77
2022/01/12 06:22:17;;;;;;;264.83;22.55;;;1.80;99.90;;;;;;5120537;27;20044;-76
2022/01/12 06:24:42;;;;;;;119.40;15.75;;;1.30;99.90;;;;;;5104186;27;20031;-77
2022/01/12 06:27:10;;;;;;;133.68;16.67;;;1.80;99.90;;;;;;5130926;27;20023;-77
2022/01/12 06:29:42;;;;;;;312.27;29.67;;;1.30;99.90;;;;;;5111115;27;20031;-77
2022/01/12 06:32:08;;;;;;;151.73;15.93;;;1.30;99.90;;;;;;5128355;27;20046;-77
2022/01/12 06:34:34;;;;;;;108.15;13.95;;;1.10;99.90;;;;;;5106078;27;20039;-77
2022/01/12 06:37:00;;;;;;;108.90;16.08;;;2.80;99.90;;;;;;5124553;27;20043;-77
2022/01/12 06:39:26;;;;;;;244.38;26.77;;;2.20;99.90;;;;;;5125196;27;20090;-77
2022/01/12 06:41:54;;;;;;;250.48;29.73;;;1.10;99.90;;;;;;5119897;27;20038;-77
2022/01/12 06:44:21;;;;;;;126.82;16.85;;;1.30;99.90;;;;;;5122704;27;20043;-77
2022/01/12 06:46:51;;;;;;;147.20;18.30;;;1.20;99.90;;;;;;5123887;27;20457;-77
2022/01/12 06:49:17;;;;;;;156.18;19.15;;;1.20;99.90;;;;;;5126922;27;20047;-77
2022/01/12 06:51:45;;;;;;;380.25;34.30;;;2.20;99.90;;;;;;5107751;27;20039;-77
2022/01/12 06:54:12;;;;;;;176.68;19.83;;;2.50;99.90;;;;;;5122679;27;20030;-77
2022/01/12 06:56:37;;;;;;;218.95;21.30;;;1.20;99.90;;;;;;5125254;27;20067;-77
2022/01/12 06:59:04;;;;;;;319.05;27.23;;;1.20;99.90;;;;;;5127118;27;20038;-77
2022/01/12 07:01:29;;;;;;;;;;;1.20;99.90;;;;;;5127212;27;20035;-77
2022/01/12 07:03:56;;;;;;;366.48;35.10;;;1.20;99.90;;;;;;5124442;27;19929;-78
2022/01/12 07:06:22;;;;;;;273.73;28.63;;;1.20;99.90;;;;;;5105903;27;20043;-76
2022/01/12 07:08:48;;;;;;;313.20;33.20;;;2.70;99.90;;;;;;5124228;27;20035;-77
2022/01/12 07:11:13;;;;;;;223.13;23.42;;;1.20;99.90;;;;;;5127221;27;20043;-76
2022/01/12 07:13:39;;;;;;;219.73;20.70;;;1.20;99.90;;;;;;5111452;27;20046;-76
2022/01/12 07:16:05;;;;;;;249.13;27.52;;;1.20;99.90;;;;;;5107235;27;20482;-77
2022/01/12 07:18:31;;;;;;;207.48;23.00;;;1.20;99.90;;;;;;5110387;27;20051;-76
2022/01/12 07:20:58;;;;;;;251.13;23.45;;;1.20;99.90;;;;;;5123994;27;20043;-77
2022/01/12 07:23:24;;;;;;;311.30;29.13;;;1.30;99.90;;;;;;5119277;27;20035;-76
2022/01/12 07:25:50;;;;;;;;;;;1.30;99.90;;;;;;5126968;27;20037;-76
2022/01/12 07:28:16;;;;;;;318.20;31.20;;;1.80;99.90;;;;;;5119706;27;19958;-77
2022/01/12 07:30:42;;;;;;;205.35;20.48;;;1.20;99.90;;;;;;5129312;27;20091;-78
2022/01/12 07:33:07;;;;;;;158.32;18.60;;;1.20;99.90;;;;;;5121958;27;20043;-77
2022/01/12 07:35:33;;;;;;;203.32;21.05;;;1.20;99.90;;;;;;5126901;27;20027;-75
2022/01/12 07:37:59;;;;;;;144.60;19.05;;;1.20;99.90;;;;;;5115888;27;20047;-75
2022/01/12 07:40:25;;;;;;;215.00;20.42;;;1.20;99.90;;;;;;5123857;27;20046;-75
2022/01/12 07:42:51;;;;;;;225.55;23.83;;;1.10;99.90;;;;;;5115765;27;20570;-75
2022/01/12 07:45:18;;;;;;;132.25;16.67;;;1.10;99.90;;;;;;5123458;27;20126;-75
2022/01/12 07:47:43;;;;;;;80.00;14.13;;;1.10;99.90;;;;;;5123046;27;20042;-75
2022/01/12 07:50:10;;;;;;;78.82;15.82;;;1.10;99.90;;;;;;5122516;27;20415;-75
2022/01/12 07:52:36;;;;;;;84.97;15.07;;;1.10;99.90;;;;;;5120397;27;20039;-75
2022/01/12 07:55:03;;;;;;;81.22;14.65;;;1.10;99.90;;;;;;5124230;27;20110;-75
2022/01/12 07:57:30;;;;;;;80.78;13.70;;;1.10;99.90;;;;;;5120773;27;20039;-75
2022/01/12 07:59:55;;;;;;;70.13;13.18;;;1.10;99.90;;;;;;5128188;27;20501;-74
2022/01/12 08:02:21;;;;;;;183.43;20.77;;;1.10;99.90;;;;;;5105177;27;20039;-75
2022/01/12 08:04:47;;;;;;;79.65;12.70;;;1.10;99.90;;;;;;5125322;27;20039;-75
2022/01/12 08:07:13;;;;;;;79.53;12.65;;;1.10;99.90;;;;;;5108807;27;20088;-75
2022/01/12 08:09:40;;;;;;;76.85;12.52;;;1.10;99.90;;;;;;5110678;27;20037;-75
2022/01/12 08:12:07;;;;;;;94.65;13.18;;;1.10;99.90;;;;;;5122577;27;20031;-75
2022/01/12 08:14:33;;;;;;;94.40;13.88;;;1.20;99.90;;;;;;5106922;27;20046;-76
2022/01/12 08:16:59;;;;;;;137.65;18.55;;;1.20;99.90;;;;;;5127754;27;20031;-75
2022/01/12 08:19:25;;;;;;;71.30;12.75;;;1.20;99.90;;;;;;5126044;27;20425;-75
2022/01/12 08:21:51;;;;;;;;;;;1.30;99.90;;;;;;5127160;27;20039;-75
2022/01/12 08:24:17;;;;;;;146.25;16.58;;;1.30;99.90;;;;;;5122463;27;19922;-75
2022/01/12 08:26:43;;;;;;;155.73;16.77;;;1.40;99.90;;;;;;5127481;27;20042;-76
2022/01/12 08:29:11;;;;;;;138.23;17.70;;;1.40;99.90;;;;;;5110774;27;20500;-76
2022/01/12 08:31:36;;;;;;;141.35;16.70;;;1.40;99.90;;;;;;5122187;27;20061;-76
2022/01/12 08:34:03;;;;;;;223.23;20.67;;;1.80;99.90;;;;;;5131256;27;20109;-76
2022/01/12 08:36:29;;;;;;;185.43;20.08;;;1.40;99.90;;;;;;5124770;27;20465;-76
2022/01/12 08:38:55;;;;;;;138.80;15.25;;;1.40;99.90;;;;;;5105177;27;20039;-77
2022/01/12 08:41:21;;;;;;;;;;;1.40;99.90;;;;;;5145652;27;20114;-76
2022/01/12 08:43:47;;;;;;;143.20;14.90;;;1.50;99.90;;;;;;5141857;27;20002;-76
2022/01/12 08:46:13;;;;;;;222.43;19.58;;;1.50;99.90;;;;;;5118235;27;20042;-76
2022/01/12 08:48:39;;;;;;;154.32;14.65;;;1.60;99.90;;;;;;5122078;27;20446;-76
2022/01/12 08:51:04;;;;;;;140.02;15.05;;;1.60;99.90;;;;;;5130374;27;20107;-76
2022/01/12 08:53:30;;;;;;;138.45;14.10;;;1.60;99.90;;;;;;5128512;27;20038;-76
2022/01/12 08:55:56;;;;;;;160.60;16.05;;;1.70;99.90;;;;;;5109345;27;20041;-76
2022/01/12 08:58:22;;;;;;;153.30;13.57;;;1.70;99.90;;;;;;5122294;27;20437;-77
2022/01/12 09:00:48;;;;;;;141.48;14.85;;;1.80;99.90;;;;;;5123310;27;20034;-77
2022/01/12 09:03:13;;;;;;;134.85;14.95;;;1.80;99.90;;;;;;5128718;27;20054;-77
2022/01/12 09:05:40;;;;;;;115.25;12.95;;;1.90;99.90;;;;;;5108077;27;20514;-77
2022/01/12 09:08:06;;;;;;;138.77;16.25;;;1.90;99.90;;;;;;5123728;27;20047;-77
2022/01/12 09:10:32;;;;;;;104.40;11.88;;;2.00;99.90;;;;;;5127224;27;20126;-78
2022/01/12 09:12:58;;;;;;;213.10;19.17;;;2.00;99.90;;;;;;5132740;27;20050;-77
2022/01/12 09:15:25;;;;;;;186.15;18.25;;;2.80;99.90;;;;;;5128476;27;20046;-77
2022/01/12 09:17:56;;;;;;;131.02;11.55;;;2.10;99.90;;;;;;5123130;27;20031;-78
2022/01/12 09:20:22;;;;;;;70.45;9.40;;;2.20;99.90;;;;;;5120811;27;20434;-78
2022/01/12 09:22:49;;;;;;;174.35;14.80;;;2.20;99.90;;;;;;5125557;27;20031;-78
2022/01/12 09:25:15;;;;;;;148.07;13.20;;;2.40;99.90;;;;;;5122251;27;20047;-78
2022/01/12 09:27:41;;;;;;;76.18;9.43;;;2.70;99.90;;;;;;5126009;27;20039;-78
2022/01/12 09:30:10;;;;;;;111.13;11.85;;;2.70;99.90;;;;;;5104806;27;20114;-77
2022/01/12 09:32:36;;;;;;;83.97;10.32;;;2.50;99.90;;;;;;5118487;27;20047;-77
2022/01/12 09:35:02;;;;;;;62.22;8.68;;;2.50;99.90;;;;;;5119623;27;20038;-77
2022/01/12 09:37:28;;;;;;;63.20;9.60;;;2.50;99.90;;;;;;5121702;27;20057;-77
2022/01/12 09:39:54;;;;;;;84.93;10.00;;;2.80;99.90;;;;;;5124993;27;20034;-78
2022/01/12 09:42:20;;;;;;;57.63;8.57;;;2.70;99.90;;;;;;5107903;27;20424;-77
2022/01/12 09:44:47;;;;;;;71.60;8.77;;;2.70;99.90;;;;;;5125693;27;20047;-78
2022/01/12 09:47:15;;;;;;;58.08;7.60;;;3.80;99.90;;;;;;5122849;27;20042;-78
2022/01/12 09:49:46;;;;;;;133.40;11.10;;;2.80;99.90;;;;;;5122478;27;20034;-77
2022/01/12 09:52:13;;;;;;;67.10;7.82;;;3.00;99.90;;;;;;5124478;27;20039;-77
2022/01/12 09:54:40;;;;;;;90.32;8.45;;;3.20;99.90;;;;;;5125367;27;20046;-78
2022/01/12 09:57:07;;;;;;;68.32;7.50;;;3.10;99.90;;;;;;5121636;27;20042;-78
2022/01/12 09:59:33;;;;;;;110.15;11.25;;;3.60;99.90;;;;;;5134692;27;20031;-78
2022/01/12 10:01:59;;;;;;;77.32;8.45;;;3.10;99.90;;;;;;5129911;27;20056;-77
2022/01/12 10:04:26;;;;;;;;;;;3.20;99.90;;;;;;5102868;27;20054;-77
2022/01/12 10:07:01;;;;;;;90.05;9.25;;;3.20;99.90;;;;;;5119581;27;19964;-77
2022/01/12 10:09:36;;;;;;;83.95;8.73;;;3.20;99.90;;;;;;5121836;27;20039;-78
2022/01/12 10:12:05;;;;;;;93.07;8.73;;;3.30;99.90;;;;;;5123357;27;20035;-77
2022/01/12 10:14:52;;;;;;;72.43;7.50;;;3.40;99.90;;;;;;5105400;27;20401;-78
2022/01/12 10:17:20;;;;;;;113.43;10.50;;;3.50;99.90;;;;;;5120616;27;20069;-78
2022/01/12 10:19:46;;;;;;;83.90;7.68;;;3.60;99.90;;;;;;5122832;27;20043;-78
2022/01/12 10:22:16;;;;;;;91.63;8.00;;;3.70;99.90;;;;;;5122807;27;20050;-78
2022/01/12 10:24:44;;;;;;;120.40;11.20;;;3.70;99.90;;;;;;5123245;27;20054;-78
2022/01/12 10:27:15;;;;;;;98.20;8.07;;;3.80;99.90;;;;;;5126972;27;20041;-78
2022/01/12 10:29:42;;;;;;;94.97;8.52;;;3.80;99.90;;;;;;5117537;27;20095;-78
2022/01/12 10:32:08;;;;;;;87.55;8.07;;;4.70;99.90;;;;;;5126235;27;20081;-78
2022/01/12 10:34:46;;;;;;;93.70;10.07;;;4.40;99.90;;;;;;5122220;27;20095;-78
2022/01/12 10:37:26;;;;;;;94.63;9.68;;;4.20;99.90;;;;;;5119465;27;20047;-78
2022/01/12 10:39:54;;;;;;;88.50;8.48;;;4.00;99.90;;;;;;5122037;27;20043;-78
2022/01/12 10:42:24;;;;;;;67.00;7.22;;;4.90;99.90;;;;;;5103990;27;20509;-77
2022/01/12 10:44:52;;;;;;;78.72;7.90;;;4.20;99.90;;;;;;5126592;27;20042;-77
2022/01/12 10:47:20;;;;;;;67.97;7.25;;;4.30;99.90;;;;;;5126016;27;20035;-77
2022/01/12 10:49:55;;;;;;;54.17;6.57;;;4.30;99.90;;;;;;5125481;27;20031;-77
2022/01/12 10:52:23;;;;;;;77.00;8.27;;;5.00;99.90;;;;;;5122684;27;20039;-76
2022/01/12 10:54:51;;;;;;;64.07;7.85;;;4.40;99.90;;;;;;5132234;27;20066;-78
2022/01/12 10:57:19;;;;;;;62.20;7.82;;;4.40;99.90;;;;;;5117409;27;20066;-77
2022/01/12 11:00:08;;;;;;;54.67;6.72;;;4.40;99.90;;;;;;5119325;27;20270;-76
2022/01/12 11:02:36;;;;;;;87.88;8.45;;;4.50;99.90;;;;;;5124209;27;20037;-76
2022/01/12 11:05:03;;;;;;;77.63;8.00;;;4.80;99.90;;;;;;5127184;27;20401;-76
2022/01/12 11:07:32;;;;;;;75.45;8.18;;;4.70;99.90;;;;;;5119206;27;20095;-77
2022/01/12 11:10:01;;;;;;;61.85;8.05;;;4.70;99.90;;;;;;5107546;27;20070;-77
2022/01/12 11:12:28;;;;;;;42.70;7.07;;;4.70;99.90;;;;;;5123871;27;20048;-77
2022/01/12 11:14:54;;;;;;;54.38;7.50;;;4.80;99.90;;;;;;5130365;27;20034;-77
2022/01/12 11:17:20;;;;;;;;;;;4.80;99.90;;;;;;5125913;27;20099;-77
2022/01/12 11:20:11;;;;;;;51.95;7.10;;;4.80;99.90;;;;;;5119827;27;20431;-77
2022/01/12 11:23:01;;;;;;;67.70;8.45;;;4.90;99.90;;;;;;5122162;27;20039;-77
2022/01/12 11:25:39;;;;;;;40.42;7.13;;;5.10;99.90;;;;;;5119086;27;20493;-77
2022/01/12 11:28:26;;;;;;;33.60;7.07;;;5.00;99.90;;;;;;5123270;27;20042;-77
2022/01/12 11:30:54;;;;;;;37.38;7.35;;;5.10;99.90;;;;;;5109370;27;20066;-77
2022/01/12 11:33:41;;;;;;;48.03;8.53;;;5.30;99.90;;;;;;5120264;27;20039;-77
2022/01/12 11:36:20;;;;;;;35.40;7.82;;;5.20;99.90;;;;;;5124053;27;20482;-77
2022/01/12 11:38:50;;;;;;;34.38;7.18;;;5.30;99.90;;;;;;5100942;27;20225;-77
2022/01/12 11:41:28;;;;;;;38.88;6.78;;;5.30;99.90;;;;;;5125774;27;20047;-77
2022/01/12 11:44:06;;;;;;;39.55;7.28;;;5.50;99.90;;;;;;5117514;27;20042;-79
2022/01/12 11:46:51;;;;;;;32.75;6.90;;;5.50;99.90;;;;;;5128372;27;20495;-79
2022/01/12 11:49:30;;;;;;;32.25;7.43;;;5.50;99.90;;;;;;5129814;27;20073;-78
2022/01/12 11:51:58;;;;;;;28.23;7.65;;;5.60;99.90;;;;;;5124491;27;20031;-78
2022/01/12 11:54:36;;;;;;;27.02;7.57;;;5.60;99.90;;;;;;5127138;27;20036;-78
2022/01/12 11:57:04;;;;;;;45.17;7.90;;;5.60;99.90;;;;;;5127121;27;20450;-78
2022/01/12 11:59:49;;;;;;;38.63;7.07;;;5.60;99.90;;;;;;5123755;27;20791;-78
2022/01/12 12:02:15;;;;;;;22.20;7.97;;;5.60;99.90;;;;;;5100134;27;20077;-78
2022/01/12 12:05:07;;;;;;;24.85;8.27;;;5.60;99.90;;;;;;5102088;27;20115;-78
2022/01/12 12:07:50;;;;;;;20.52;7.63;;;5.60;99.90;;;;;;5122651;27;20050;-79
2022/01/12 12:10:22;;;;;;;29.85;8.23;;;5.60;99.90;;;;;;5121577;27;20039;-78
2022/01/12 12:12:50;;;;;;;31.23;8.75;;;6.30;99.90;;;;;;5121847;27;20919;-78
2022/01/12 12:15:17;;;;;;;33.53;8.98;;;5.70;99.90;;;;;;5128158;27;20095;-78
2022/01/12 12:17:43;;;;;;;28.25;8.35;;;5.70;99.90;;;;;;5100662;28;20050;-81
2022/01/12 12:20:15;;;;;;;40.90;9.35;;;5.80;99.90;;;;;;5123848;27;20046;-78
2022/01/12 12:22:42;;;;;;;31.90;8.95;;;5.80;99.90;;;;;;5126330;27;20049;-78
2022/01/12 12:25:19;;;;;;;40.78;9.50;;;5.80;99.90;;;;;;5111723;27;20031;-78
2022/01/12 12:27:51;;;;;;;26.75;8.65;;;5.80;99.90;;;;;;5123945;27;20301;-76
2022/01/12 12:30:18;;;;;;;35.72;9.68;;;5.80;99.90;;;;;;5125339;27;20039;-76
2022/01/12 12:33:04;;;;;;;34.85;8.93;;;6.10;99.90;;;;;;5103857;28;20081;-76
2022/01/12 12:35:32;;;;;;;32.08;8.68;;;5.90;99.90;;;;;;5105793;27;20070;-77
2022/01/12 12:38:05;;;;;;;35.33;9.57;;;5.90;99.90;;;;;;5125629;27;20039;-76
2022/01/12 12:40:36;;;;;;;39.67;8.80;;;5.90;99.90;;;;;;5124893;27;20374;-76
2022/01/12 12:43:05;;;;;;;44.35;10.18;;;6.20;99.90;;;;;;5114745;28;20047;-76
2022/01/12 12:45:51;;;;;;;36.60;8.55;;;5.90;99.90;;;;;;5124018;27;20095;-75
2022/01/12 12:48:20;;;;;;;35.67;9.77;;;5.90;99.90;;;;;;5122573;27;20035;-76
2022/01/12 12:50:48;;;;;;;35.78;9.75;;;6.10;99.90;;;;;;5103335;27;20039;-76
2022/01/12 12:53:14;;;;;;;31.63;10.40;;;5.90;99.90;;;;;;5103116;28;20039;-76
2022/01/12 12:55:43;;;;;;;28.98;9.90;;;6.00;99.90;;;;;;5107029;27;20038;-76
2022/01/12 12:58:10;;;;;;;32.13;9.48;;;6.00;99.90;;;;;;5122655;27;20039;-78
2022/01/12 13:00:37;;;;;;;25.58;8.90;;;6.00;99.90;;;;;;5117430;28;20126;-78
2022/01/12 13:03:05;;;;;;;29.23;9.98;;;6.00;99.90;;;;;;5105504;27;20043;-78
2022/01/12 13:05:34;;;;;;;24.85;9.35;;;6.00;99.90;;;;;;5123593;27;20140;-78
2022/01/12 13:08:00;;;;;;;33.92;9.75;;;6.10;99.90;;;;;;5140674;27;20086;-76
2022/01/12 13:10:28;;;;;;;37.10;9.88;;;6.10;99.90;;;;;;5123020;27;20038;-78
2022/01/12 13:12:59;;;;;;;37.50;10.40;;;6.10;99.90;;;;;;5121808;27;20114;-77
2022/01/12 13:15:30;;;;;;;33.25;10.15;;;6.20;99.90;;;;;;5128262;27;20053;-77
2022/01/12 13:18:06;;;;;;;32.70;10.95;;;6.20;99.90;;;;;;5126964;27;20474;-78
2022/01/12 13:23:24;;;;;;;25.75;9.68;;;6.20;99.90;;;;;;5124057;27;20134;-77
2022/01/12 13:25:55;;;;;;;27.90;9.35;;;6.20;99.90;;;;;;5108816;27;20039;-77
2022/01/12 13:28:21;;;;;;;20.20;9.65;;;6.20;99.90;;;;;;5129017;27;20102;-78
2022/01/12 13:30:57;;;;;;;23.33;8.50;;;6.20;99.90;;;;;;5107179;27;20092;-77
2022/01/12 13:33:26;;;;;;;25.93;8.03;;;6.10;99.90;;;;;;5121522;27;20050;-79
2022/01/12 13:35:52;;;;;;;27.40;9.57;;;6.20;99.90;;;;;;5124969;27;20740;-77
2022/01/12 13:38:27;;;;;;;28.27;9.30;;;6.10;99.90;;;;;;5124510;27;20038;-77
2022/01/12 13:40:55;;;;;;;24.23;8.20;;;6.20;99.90;;;;;;5123794;27;20095;-77
2022/01/12 13:43:23;;;;;;;23.20;8.25;;;6.20;99.90;;;;;;5125652;27;20035;-77
2022/01/12 13:45:56;;;;;;;18.20;7.38;;;6.30;99.90;;;;;;5126549;27;20127;-78
2022/01/12 13:48:32;;;;;;;26.27;8.90;;;6.20;99.90;;;;;;5130919;27;20038;-77
2022/01/12 13:50:59;;;;;;;20.73;7.63;;;6.10;99.90;;;;;;5129064;27;20047;-77
2022/01/12 13:53:38;;;;;;;23.33;7.57;;;6.30;99.90;;;;;;5107902;27;20525;-77
2022/01/12 13:56:06;;;;;;;24.92;8.25;;;6.10;99.90;;;;;;5106092;27;20046;-77
2022/01/12 13:58:35;;;;;;;18.75;7.88;;;6.00;99.90;;;;;;5111307;27;20122;-77